Time;durP1;ratioP1;P1;durP2;ratioP2;P2;SDS_P1;SDS_P2;PMS_P1;PMS_P2;Temp;Humidity;BMP_temperature;BMP_pressure;BME280_temperature;BME280_humidity;BME280_pressure;Samples;Min_cycle;Max_cycle;Signal;HPM_P1;HPM_P2
2021/12/15 00:02:10;;;;;;;;;;;21.30;50.20;;;;;;5036392;28;19913;-68
2021/12/15 00:04:36;;;;;;;;;;;21.30;50.20;;;;;;5041447;28;19995;-68
2021/12/15 00:07:01;;;;;;;;;;;21.30;50.20;;;;;;5038579;28;20005;-68
2021/12/15 00:09:29;;;;;;;;;;;21.30;50.30;;;;;;5043611;28;19919;-68
2021/12/15 00:11:54;;;;;;;;;;;21.30;50.20;;;;;;5041538;28;20727;-71
2021/12/15 00:14:20;;;;;;;;;;;21.20;50.20;;;;;;5044479;28;19924;-68
2021/12/15 00:16:46;;;;;;;;;;;21.30;50.30;;;;;;5039856;28;19909;-68
2021/12/15 00:19:12;;;;;;;;;;;21.30;50.30;;;;;;5040158;28;19916;-68
2021/12/15 00:21:38;;;;;;;;;;;21.20;50.20;;;;;;5037729;28;20343;-65
2021/12/15 00:24:04;;;;;;;;;;;21.20;50.20;;;;;;5037312;28;19920;-71
2021/12/15 00:26:30;;;;;;;;;;;21.20;50.30;;;;;;5041257;28;20311;-66
2021/12/15 00:28:56;;;;;;;;;;;21.20;50.30;;;;;;5044493;28;20431;-67
2021/12/15 00:31:21;;;;;;;;;;;21.20;50.30;;;;;;5043687;28;20021;-69
2021/12/15 00:33:48;;;;;;;;;;;21.20;50.30;;;;;;5043288;28;19939;-69
2021/12/15 00:36:14;;;;;;;;;;;21.20;50.30;;;;;;5039166;28;19962;-70
2021/12/15 00:38:40;;;;;;;;;;;21.20;50.30;;;;;;5039774;28;20495;-70
2021/12/15 00:41:06;;;;;;;;;;;21.10;50.30;;;;;;5042129;28;19909;-67
2021/12/15 00:43:32;;;;;;;;;;;21.20;50.40;;;;;;5043346;28;19916;-70
2021/12/15 00:45:57;;;;;;;;;;;21.10;50.30;;;;;;5042426;28;19912;-69
2021/12/15 00:48:23;;;;;;;;;;;21.10;50.30;;;;;;5044702;28;19919;-71
2021/12/15 00:50:49;;;;;;;;;;;21.10;50.40;;;;;;5043538;28;20348;-66
2021/12/15 00:53:15;;;;;;;;;;;21.10;50.30;;;;;;5043816;28;19908;-67
2021/12/15 00:55:43;;;;;;;;;;;21.10;50.30;;;;;;5049154;28;20378;-67
2021/12/15 00:58:09;;;;;;;;;;;21.10;50.40;;;;;;5045864;28;20122;-68
2021/12/15 01:00:41;;;;;;;;;;;21.10;50.40;;;;;;5041461;28;19959;-70
2021/12/15 01:03:07;;;;;;;;;;;21.10;50.40;;;;;;5047004;28;19909;-70
2021/12/15 01:05:35;;;;;;;;;;;21.10;50.40;;;;;;5040735;28;19940;-71
2021/12/15 01:08:03;;;;;;;;;;;21.00;50.40;;;;;;5044453;28;19942;-65
2021/12/15 01:10:42;;;;;;;;;;;21.00;50.40;;;;;;5047399;28;19912;-68
2021/12/15 01:21:07;;;;;;;;;;;21.00;50.40;;;;;;5043977;28;19915;-69
2021/12/15 01:23:33;;;;;;;;;;;21.00;50.40;;;;;;5045558;28;19913;-71
2021/12/15 01:25:58;;;;;;;;;;;21.00;50.40;;;;;;5046125;28;20013;-71
2021/12/15 01:28:24;;;;;;;;;;;20.90;50.90;;;;;;5043004;28;20775;-68
2021/12/15 01:30:50;;;;;;;;;;;20.90;50.40;;;;;;5046291;28;19923;-70
2021/12/15 01:33:16;;;;;;;;;;;20.90;50.40;;;;;;5046809;28;20368;-65
2021/12/15 01:35:44;;;;;;;;;;;20.90;50.40;;;;;;5047441;28;19909;-67
2021/12/15 01:38:09;;;;;;;;;;;20.90;50.40;;;;;;5046586;28;20002;-69
2021/12/15 01:40:38;;;;;;;;;;;20.90;50.50;;;;;;5045174;28;19966;-67
2021/12/15 01:43:14;;;;;;;;;;;20.90;50.50;;;;;;5043403;28;19916;-69
2021/12/15 01:48:24;;;;;;;;;;;20.90;50.50;;;;;;5044175;28;19939;-71
2021/12/15 01:50:50;;;;;;;;;;;20.90;50.50;;;;;;5045230;28;20358;-67
2021/12/15 01:53:16;;;;;;;;;;;20.90;50.50;;;;;;5046067;28;19950;-66
2021/12/15 01:55:42;;;;;;;;;;;20.80;50.50;;;;;;5045209;28;19948;-65
2021/12/15 01:58:07;;;;;;;;;;;20.90;50.60;;;;;;5045940;28;20031;-68
2021/12/15 02:00:44;;;;;;;;;;;20.80;50.50;;;;;;5043699;28;19955;-68
2021/12/15 02:03:10;;;;;;;;;;;20.80;50.50;;;;;;5045789;28;19913;-70
2021/12/15 02:05:36;;;;;;;;;;;20.80;50.50;;;;;;5043718;28;20279;-71
2021/12/15 02:08:05;;;;;;;;;;;20.80;50.60;;;;;;5046650;28;19912;-71
2021/12/15 02:10:34;;;;;;;;;;;20.80;50.50;;;;;;5045758;28;20409;-69
2021/12/15 02:13:00;;;;;;;;;;;20.80;50.60;;;;;;5043631;28;20398;-67
2021/12/15 02:15:30;;;;;;;;;;;20.80;50.50;;;;;;5044910;28;19908;-65
2021/12/15 02:17:56;;;;;;;;;;;20.80;50.60;;;;;;5045486;28;20028;-71
2021/12/15 02:20:26;;;;;;;;;;;20.80;50.60;;;;;;5038886;28;19917;-70
2021/12/15 02:22:52;;;;;;;;;;;20.80;50.60;;;;;;5044217;28;19955;-66
2021/12/15 02:25:17;;;;;;;;;;;20.80;50.60;;;;;;5045538;28;19967;-69
2021/12/15 02:27:43;;;;;;;;;;;20.70;50.50;;;;;;5046788;28;20368;-70
2021/12/15 02:30:28;;;;;;;;;;;20.70;50.60;;;;;;5042490;28;20012;-69
2021/12/15 02:33:08;;;;;;;;;;;20.70;50.60;;;;;;5043577;28;19986;-68
2021/12/15 02:38:24;;;;;;;;;;;20.70;50.60;;;;;;5038253;28;19962;-69
2021/12/15 02:40:50;;;;;;;;;;;20.70;50.60;;;;;;5044916;28;20440;-70
2021/12/15 02:43:15;;;;;;;;;;;20.70;50.60;;;;;;5046246;28;19991;-65
2021/12/15 02:45:41;;;;;;;;;;;20.70;50.60;;;;;;5042126;28;19913;-68
2021/12/15 02:48:06;;;;;;;;;;;20.70;50.70;;;;;;5046861;28;19908;-70
2021/12/15 02:50:33;;;;;;;;;;;20.70;50.60;;;;;;5043747;28;19913;-67
2021/12/15 02:52:59;;;;;;;;;;;20.70;50.70;;;;;;5045155;28;19913;-69
2021/12/15 02:55:25;;;;;;;;;;;20.70;50.70;;;;;;5044981;28;19913;-65
2021/12/15 02:57:51;;;;;;;;;;;20.60;50.60;;;;;;5043965;28;19917;-70
2021/12/15 03:00:24;;;;;;;;;;;20.60;50.60;;;;;;5044134;28;19928;-70
2021/12/15 03:05:46;;;;;;;;;;;20.70;50.70;;;;;;5044715;28;19917;-69
2021/12/15 03:08:17;;;;;;;;;;;20.60;50.60;;;;;;5043528;28;19917;-68
2021/12/15 03:16:13;;;;;;;;;;;20.60;50.70;;;;;;5044429;28;19954;-69
2021/12/15 03:18:39;;;;;;;;;;;20.60;50.70;;;;;;5042776;28;20434;-65
2021/12/15 03:21:10;;;;;;;;;;;20.60;50.70;;;;;;5043642;28;19967;-70
2021/12/15 03:23:39;;;;;;;;;;;20.60;50.70;;;;;;5043437;28;19986;-66
2021/12/15 03:26:05;;;;;;;;;;;20.60;50.70;;;;;;5045214;28;20583;-68
2021/12/15 03:34:14;;;;;;;;;;;20.60;50.70;;;;;;5044116;28;19923;-65
2021/12/15 03:37:07;;;;;;;;;;;20.50;50.70;;;;;;5038808;28;20012;-69
2021/12/15 03:39:35;;;;;;;;;;;20.50;50.70;;;;;;5042663;28;19967;-72
2021/12/15 03:42:05;;;;;;;;;;;20.50;50.70;;;;;;5041928;28;20066;-67
2021/12/15 03:44:33;;;;;;;;;;;20.50;50.70;;;;;;5040883;28;20016;-69
2021/12/15 03:46:59;;;;;;;;;;;20.50;50.70;;;;;;5045762;28;19908;-71
2021/12/15 03:49:25;;;;;;;;;;;20.50;50.70;;;;;;5043309;28;19923;-67
2021/12/15 03:51:50;;;;;;;;;;;20.50;50.70;;;;;;5042831;28;19917;-70
2021/12/15 03:54:17;;;;;;;;;;;20.50;50.80;;;;;;5044432;28;19920;-71
2021/12/15 03:56:43;;;;;;;;;;;20.50;50.80;;;;;;5041279;28;19912;-66
2021/12/15 03:59:10;;;;;;;;;;;20.50;50.80;;;;;;5044888;28;19962;-69
2021/12/15 04:01:35;;;;;;;;;;;20.50;50.80;;;;;;5045053;28;19955;-69
2021/12/15 04:04:02;;;;;;;;;;;20.50;50.80;;;;;;5042764;28;20321;-66
2021/12/15 04:06:30;;;;;;;;;;;20.50;50.80;;;;;;5042127;28;19908;-72
2021/12/15 04:08:55;;;;;;;;;;;20.50;50.80;;;;;;5043348;28;19909;-70
2021/12/15 04:11:22;;;;;;;;;;;20.50;50.80;;;;;;5044904;28;20003;-67
2021/12/15 04:13:48;;;;;;;;;;;20.50;50.80;;;;;;5043741;28;19974;-69
2021/12/15 04:16:41;;;;;;;;;;;20.40;50.70;;;;;;5044382;28;19916;-66
2021/12/15 04:19:04;;;;;;;;;;;20.40;50.80;;;;;;5042744;28;19913;-68
2021/12/15 04:21:29;;;;;;;;;;;20.40;50.80;;;;;;5040528;28;19913;-66
2021/12/15 04:23:56;;;;;;;;;;;20.40;50.80;;;;;;5044077;28;19916;-69
2021/12/15 04:26:21;;;;;;;;;;;20.40;50.80;;;;;;5041284;28;19959;-69
2021/12/15 04:28:47;;;;;;;;;;;20.40;50.80;;;;;;5044350;28;19956;-67
2021/12/15 04:31:15;;;;;;;;;;;20.40;50.90;;;;;;5037291;28;20334;-71
2021/12/15 04:33:41;;;;;;;;;;;20.40;50.90;;;;;;5041711;28;19955;-71
2021/12/15 04:36:07;;;;;;;;;;;20.40;50.90;;;;;;5042021;28;19913;-67
2021/12/15 04:38:34;;;;;;;;;;;20.40;51.40;;;;;;5042592;28;20023;-70
2021/12/15 04:41:01;;;;;;;;;;;20.40;50.90;;;;;;5043801;28;20252;-67
2021/12/15 04:43:32;;;;;;;;;;;20.40;50.90;;;;;;5043903;28;19947;-71
2021/12/15 04:45:58;;;;;;;;;;;20.30;50.80;;;;;;5040430;28;20071;-71
2021/12/15 04:48:24;;;;;;;;;;;20.40;51.00;;;;;;5041645;28;20095;-65
2021/12/15 04:50:49;;;;;;;;;;;20.40;50.90;;;;;;5038574;28;19914;-68
2021/12/15 04:53:15;;;;;;;;;;;20.40;50.90;;;;;;5042805;28;19909;-65
2021/12/15 04:55:40;;;;;;;;;;;20.30;50.90;;;;;;5045150;28;19958;-66
2021/12/15 04:58:07;;;;;;;;;;;20.30;50.90;;;;;;5042263;28;19916;-69
2021/12/15 05:00:34;;;;;;;;;;;20.40;50.90;;;;;;5036562;28;20147;-69
2021/12/15 05:03:00;;;;;;;;;;;20.40;51.00;;;;;;5042522;28;19913;-65
2021/12/15 05:05:26;;;;;;;;;;;20.40;51.00;;;;;;5041461;28;19913;-68
2021/12/15 05:07:52;;;;;;;;;;;20.40;51.00;;;;;;5043848;28;20003;-67
2021/12/15 05:10:18;;;;;;;;;;;20.40;51.00;;;;;;5041817;28;19971;-66
2021/12/15 05:12:44;;;;;;;;;;;20.40;51.00;;;;;;5045519;28;19924;-66
2021/12/15 05:15:10;;;;;;;;;;;20.40;51.00;;;;;;5041192;28;19913;-63
2021/12/15 05:17:35;;;;;;;;;;;20.40;51.00;;;;;;5044633;28;20479;-63
2021/12/15 05:20:04;;;;;;;;;;;20.40;51.00;;;;;;5040483;28;19917;-63
2021/12/15 05:22:31;;;;;;;;;;;20.30;51.00;;;;;;5041913;28;19921;-67
2021/12/15 05:24:57;;;;;;;;;;;20.30;51.00;;;;;;5042384;28;19912;-63
2021/12/15 05:27:22;;;;;;;;;;;20.30;50.90;;;;;;5042484;28;20416;-65
2021/12/15 05:29:48;;;;;;;;;;;20.30;50.90;;;;;;5040790;28;19905;-70
2021/12/15 05:32:18;;;;;;;;;;;20.30;50.90;;;;;;5039606;28;19912;-66
2021/12/15 05:34:44;;;;;;;;;;;20.30;51.00;;;;;;5041418;28;19917;-67
2021/12/15 05:37:10;;;;;;;;;;;20.30;51.00;;;;;;5042661;28;19916;-67
2021/12/15 05:39:36;;;;;;;;;;;20.30;51.00;;;;;;5045551;28;19959;-66
2021/12/15 05:42:02;;;;;;;;;;;20.30;51.00;;;;;;5044440;28;20352;-67
2021/12/15 05:44:28;;;;;;;;;;;20.30;51.00;;;;;;5047104;28;19923;-65
2021/12/15 05:46:54;;;;;;;;;;;20.30;51.00;;;;;;5044665;28;20381;-67
2021/12/15 05:49:20;;;;;;;;;;;20.30;51.00;;;;;;5039702;28;19916;-69
2021/12/15 05:51:46;;;;;;;;;;;20.30;51.00;;;;;;5042310;28;19924;-66
2021/12/15 05:54:12;;;;;;;;;;;20.30;51.00;;;;;;5044246;28;19914;-67
2021/12/15 05:56:38;;;;;;;;;;;20.30;51.00;;;;;;5046425;28;19912;-67
2021/12/15 05:59:04;;;;;;;;;;;20.30;51.00;;;;;;5039081;28;19917;-67
2021/12/15 06:01:29;;;;;;;;;;;20.30;51.10;;;;;;5042753;28;20659;-66
2021/12/15 06:03:55;;;;;;;;;;;20.30;51.10;;;;;;5043492;28;19959;-67
2021/12/15 06:06:21;;;;;;;;;;;20.30;51.10;;;;;;5041840;28;19974;-66
2021/12/15 06:08:46;;;;;;;;;;;20.30;51.10;;;;;;5038552;28;19983;-68
2021/12/15 06:11:12;;;;;;;;;;;20.30;51.10;;;;;;5038863;28;19940;-64
2021/12/15 06:13:38;;;;;;;;;;;20.30;52.10;;;;;;5039729;28;20272;-65
2021/12/15 06:16:05;;;;;;;;;;;20.50;52.50;;;;;;5040523;28;20302;-66
2021/12/15 06:18:31;;;;;;;;;;;20.70;52.30;;;;;;5043608;28;19913;-66
2021/12/15 06:20:56;;;;;;;;;;;20.90;52.20;;;;;;5038352;28;20016;-67
2021/12/15 06:23:22;;;;;;;;;;;21.20;52.00;;;;;;5042361;28;19952;-69
2021/12/15 06:25:50;;;;;;;;;;;21.30;52.50;;;;;;5042651;28;20003;-66
2021/12/15 06:28:16;;;;;;;;;;;21.50;51.90;;;;;;5044517;28;19908;-68
2021/12/15 06:30:41;;;;;;;;;;;21.70;51.50;;;;;;5042535;28;19928;-66
2021/12/15 06:33:07;;;;;;;;;;;21.80;51.70;;;;;;5042291;28;19909;-67
2021/12/15 06:35:34;;;;;;;;;;;21.70;51.20;;;;;;5042822;28;19920;-66
2021/12/15 06:38:00;;;;;;;;;;;21.70;51.40;;;;;;5044036;28;20410;-67
2021/12/15 06:40:26;;;;;;;;;;;21.60;51.40;;;;;;5039083;28;19916;-65
2021/12/15 06:42:51;;;;;;;;;;;21.50;51.50;;;;;;5043788;28;19992;-64
2021/12/15 06:45:21;;;;;;;;;;;21.50;51.70;;;;;;5043669;28;19912;-66
2021/12/15 06:59:03;;;;;;;;;;;21.50;51.70;;;;;;5043576;28;20003;-66
2021/12/15 07:01:28;;;;;;;;;;;21.50;51.80;;;;;;5044540;28;19960;-65
2021/12/15 07:03:54;;;;;;;;;;;21.60;51.90;;;;;;5041046;28;19912;-67
2021/12/15 07:06:20;;;;;;;;;;;21.60;51.90;;;;;;5042951;28;20243;-67
2021/12/15 07:08:46;;;;;;;;;;;21.60;51.90;;;;;;5040811;28;19930;-64
2021/12/15 07:11:11;;;;;;;;;;;21.70;52.00;;;;;;5046060;28;20372;-64
2021/12/15 07:13:37;;;;;;;;;;;21.70;52.30;;;;;;5045760;28;19909;-63
2021/12/15 07:16:07;;;;;;;;;;;21.80;52.40;;;;;;5036168;28;19913;-66
2021/12/15 07:18:51;;;;;;;;;;;21.80;52.10;;;;;;5036000;28;19966;-64
2021/12/15 07:21:21;;;;;;;;;;;21.80;51.90;;;;;;5042847;28;19909;-66
2021/12/15 07:23:48;;;;;;;;;;;21.80;51.80;;;;;;5042301;28;19935;-66
2021/12/15 07:26:13;;;;;;;;;;;21.80;51.70;;;;;;5044134;28;19924;-66
2021/12/15 07:28:40;;;;;;;;;;;21.90;52.50;;;;;;5043560;28;20093;-67
2021/12/15 07:31:06;;;;;;;;;;;21.90;52.40;;;;;;5043165;28;19917;-68
2021/12/15 07:33:32;;;;;;;;;;;21.90;52.60;;;;;;5040739;28;19924;-64
2021/12/15 07:35:57;;;;;;;;;;;22.00;52.40;;;;;;5042602;28;20275;-65
2021/12/15 07:38:23;;;;;;;;;;;22.00;52.50;;;;;;5043812;28;20249;-67
2021/12/15 07:40:48;;;;;;;;;;;22.00;53.00;;;;;;5042013;28;19913;-67
2021/12/15 07:43:23;;;;;;;;;;;22.00;52.50;;;;;;5041668;28;19997;-67
2021/12/15 07:45:59;;;;;;;;;;;22.10;52.50;;;;;;5044910;28;20632;-65
2021/12/15 07:48:30;;;;;;;;;;;22.10;52.50;;;;;;5042006;28;19913;-65
2021/12/15 07:50:57;;;;;;;;;;;22.10;53.20;;;;;;5038365;28;19909;-67
2021/12/15 07:53:23;;;;;;;;;;;22.10;52.90;;;;;;5042519;28;19939;-66
2021/12/15 07:55:49;;;;;;;;;;;22.20;53.00;;;;;;5046460;28;19908;-66
2021/12/15 07:58:18;;;;;;;;;;;22.20;53.20;;;;;;5043266;28;19920;-66
2021/12/15 08:00:43;;;;;;;;;;;22.20;52.90;;;;;;5038387;28;19925;-66
2021/12/15 08:03:09;;;;;;;;;;;22.20;52.90;;;;;;5044560;28;20253;-66
2021/12/15 08:05:39;;;;;;;;;;;22.20;53.20;;;;;;5042492;28;19912;-65
2021/12/15 08:08:04;;;;;;;;;;;22.20;52.90;;;;;;5042624;28;19912;-65
2021/12/15 08:10:30;;;;;;;;;;;22.30;53.10;;;;;;5042687;28;19912;-66
2021/12/15 08:12:55;;;;;;;;;;;22.30;53.00;;;;;;5043971;28;20285;-66
2021/12/15 08:15:21;;;;;;;;;;;22.40;53.10;;;;;;5042937;28;20603;-66
2021/12/15 08:17:50;;;;;;;;;;;22.40;53.80;;;;;;5040693;28;19908;-66
2021/12/15 08:20:17;;;;;;;;;;;22.40;53.50;;;;;;5042619;28;19913;-66
2021/12/15 08:22:43;;;;;;;;;;;22.40;53.30;;;;;;5041978;28;20055;-66
2021/12/15 08:25:10;;;;;;;;;;;22.40;53.30;;;;;;5043631;28;20169;-65
2021/12/15 08:27:36;;;;;;;;;;;22.40;53.50;;;;;;5042998;28;19944;-66
2021/12/15 08:30:02;;;;;;;;;;;22.50;53.30;;;;;;5042399;28;19970;-66
2021/12/15 08:32:28;;;;;;;;;;;22.50;53.10;;;;;;5040424;28;19917;-66
2021/12/15 08:34:54;;;;;;;;;;;22.50;53.20;;;;;;5040578;28;19916;-65
2021/12/15 08:37:19;;;;;;;;;;;22.50;52.90;;;;;;5041143;28;19917;-66
2021/12/15 08:39:45;;;;;;;;;;;22.50;52.90;;;;;;5040852;28;20276;-66
2021/12/15 08:42:12;;;;;;;;;;;22.50;50.50;;;;;;5044963;28;19917;-65
2021/12/15 08:44:38;;;;;;;;;;;22.50;50.40;;;;;;5042576;28;20006;-65
2021/12/15 08:47:04;;;;;;;;;;;22.50;50.40;;;;;;5043798;28;19943;-67
2021/12/15 08:49:30;;;;;;;;;;;22.50;50.60;;;;;;5039795;28;19931;-64
2021/12/15 08:51:55;;;;;;;;;;;22.50;51.30;;;;;;5042285;28;19912;-67
2021/12/15 08:54:23;;;;;;;;;;;22.50;51.10;;;;;;5045491;28;19966;-67
2021/12/15 08:56:48;;;;;;;;;;;22.50;51.50;;;;;;5042946;28;19912;-65
2021/12/15 08:59:14;;;;;;;;;;;22.60;51.90;;;;;;5041200;28;19919;-66
2021/12/15 09:01:41;;;;;;;;;;;22.60;51.70;;;;;;5039318;28;19938;-65
2021/12/15 09:04:07;;;;;;;;;;;22.60;51.40;;;;;;5039503;28;19918;-67
2021/12/15 09:06:32;;;;;;;;;;;22.60;51.70;;;;;;5040846;28;20376;-68
2021/12/15 09:08:58;;;;;;;;;;;22.70;51.90;;;;;;5044832;28;19916;-67
2021/12/15 09:11:24;;;;;;;;;;;22.70;52.10;;;;;;5046203;28;19920;-68
2021/12/15 09:13:52;;;;;;;;;;;22.70;52.10;;;;;;5048163;28;19935;-67
2021/12/15 09:16:18;;;;;;;;;;;22.70;52.40;;;;;;5045116;28;19978;-67
2021/12/15 09:18:45;;;;;;;;;;;22.80;52.80;;;;;;5045829;28;19978;-67
2021/12/15 09:21:11;;;;;;;;;;;22.80;52.40;;;;;;5045599;28;19983;-65
2021/12/15 09:23:37;;;;;;;;;;;22.80;52.20;;;;;;5044207;28;19979;-67
2021/12/15 09:26:04;;;;;;;;;;;22.80;52.00;;;;;;5046408;28;19955;-68
2021/12/15 09:28:32;;;;;;;;;;;22.80;52.30;;;;;;5046955;28;19936;-68
2021/12/15 09:30:58;;;;;;;;;;;22.80;53.10;;;;;;5046438;28;20004;-64
2021/12/15 09:33:24;;;;;;;;;;;22.90;53.40;;;;;;5046064;28;19944;-69
2021/12/15 09:35:50;;;;;;;;;;;22.90;53.40;;;;;;5045451;28;19919;-65
2021/12/15 09:38:17;;;;;;;;;;;22.90;52.30;;;;;;5043705;28;19921;-67
2021/12/15 09:40:43;;;;;;;;;;;22.90;48.90;;;;;;5041043;28;19931;-68
2021/12/15 09:43:10;;;;;;;;;;;22.90;49.40;;;;;;5041799;28;20386;-64
2021/12/15 10:02:10;;;;;;;;;;;22.90;50.60;;;;;;5039824;28;19963;-68
2021/12/15 10:04:47;;;;;;;;;;;23.00;50.90;;;;;;5041582;28;19940;-68
2021/12/15 10:18:27;;;;;;;;;;;23.10;51.40;;;;;;5039064;28;20452;-67
2021/12/15 10:20:52;;;;;;;;;;;23.10;51.30;;;;;;5043109;28;20550;-68
2021/12/15 10:23:24;;;;;;;;;;;23.10;51.50;;;;;;5042163;28;19917;-68
2021/12/15 10:25:53;;;;;;;;;;;23.10;51.60;;;;;;5043866;28;19912;-67
2021/12/15 10:28:21;;;;;;;;;;;23.20;51.70;;;;;;5044783;28;19916;-68
2021/12/15 10:30:54;;;;;;;;;;;23.20;51.60;;;;;;5042699;28;19951;-67
2021/12/15 10:33:25;;;;;;;;;;;23.20;52.00;;;;;;5043692;28;19909;-67
2021/12/15 10:36:01;;;;;;;;;;;23.20;51.80;;;;;;5042430;28;19917;-66
2021/12/15 10:38:32;;;;;;;;;;;23.20;51.60;;;;;;5042890;28;20674;-64
2021/12/15 10:41:16;;;;;;;;;;;23.20;51.80;;;;;;5042964;28;20551;-67
2021/12/15 10:43:52;;;;;;;;;;;23.20;52.20;;;;;;5044558;28;20263;-69
2021/12/15 10:46:20;;;;;;;;;;;23.30;53.10;;;;;;5043844;28;19919;-65
2021/12/15 10:49:05;;;;;;;;;;;23.30;52.30;;;;;;5044407;28;19909;-64
2021/12/15 10:51:37;;;;;;;;;;;23.30;53.00;;;;;;5039055;28;19917;-67
2021/12/15 10:54:09;;;;;;;;;;;23.40;52.40;;;;;;5042018;28;20507;-66
2021/12/15 10:56:37;;;;;;;;;;;23.40;52.70;;;;;;5038786;28;19916;-64
2021/12/15 10:59:05;;;;;;;;;;;23.40;53.40;;;;;;5044383;28;19928;-68
2021/12/15 11:01:36;;;;;;;;;;;23.40;53.30;;;;;;5041235;28;19944;-64
2021/12/15 11:04:02;;;;;;;;;;;23.50;53.20;;;;;;5043833;28;20209;-65
2021/12/15 11:06:33;;;;;;;;;;;23.50;49.60;;;;;;5039920;28;19912;-66
2021/12/15 11:09:30;;;;;;;;;;;23.40;48.20;;;;;;5039962;28;19913;-66
2021/12/15 11:12:01;;;;;;;;;;;23.30;47.70;;;;;;5011565;28;19909;-63
2021/12/15 11:14:29;;;;;;;;;;;23.20;47.70;;;;;;5044790;28;19995;-65
2021/12/15 11:17:02;;;;;;;;;;;23.20;47.70;;;;;;5043007;28;21873;-65
2021/12/15 11:19:41;;;;;;;;;;;23.20;47.60;;;;;;5038183;28;20395;-67
2021/12/15 11:22:25;;;;;;;;;;;23.10;47.40;;;;;;5041799;28;19915;-67
2021/12/15 11:24:51;;;;;;;;;;;23.10;47.50;;;;;;5042329;28;19913;-64
2021/12/15 11:27:17;;;;;;;;;;;23.10;47.50;;;;;;5039263;28;19909;-62
2021/12/15 11:29:43;;;;;;;;;;;23.10;47.50;;;;;;5038842;28;19978;-66
2021/12/15 11:32:28;;;;;;;;;;;23.00;47.50;;;;;;5044464;28;20341;-65
2021/12/15 11:35:05;;;;;;;;;;;23.00;47.60;;;;;;5052676;28;20322;-67
2021/12/15 11:37:48;;;;;;;;;;;22.90;47.60;;;;;;5044171;28;20011;-65
2021/12/15 11:40:21;;;;;;;;;;;22.90;47.60;;;;;;5033127;28;20269;-66
2021/12/15 11:42:47;;;;;;;;;;;22.90;47.60;;;;;;5042887;28;19931;-64
2021/12/15 11:45:13;;;;;;;;;;;22.90;47.70;;;;;;5042746;28;19912;-67
2021/12/15 11:47:38;;;;;;;;;;;22.80;47.70;;;;;;5045247;28;19924;-66
2021/12/15 11:50:18;;;;;;;;;;;22.80;47.80;;;;;;5040874;28;20050;-68
2021/12/15 11:52:46;;;;;;;;;;;22.80;47.80;;;;;;5039793;28;20637;-66
2021/12/15 11:55:26;;;;;;;;;;;22.70;47.90;;;;;;5040064;28;19919;-64
2021/12/15 11:57:52;;;;;;;;;;;22.80;48.20;;;;;;5041480;28;19950;-69
2021/12/15 12:00:20;;;;;;;;;;;22.80;48.40;;;;;;5036808;28;19920;-68
2021/12/15 12:02:47;;;;;;;;;;;22.70;48.60;;;;;;5045119;28;19995;-66
2021/12/15 12:05:33;;;;;;;;;;;22.70;48.90;;;;;;5044289;28;19924;-65
2021/12/15 12:08:00;;;;;;;;;;;22.80;49.10;;;;;;5051101;28;19913;-67
2021/12/15 12:10:30;;;;;;;;;;;22.80;49.50;;;;;;5049838;28;19978;-67
2021/12/15 12:13:08;;;;;;;;;;;22.80;49.70;;;;;;5040061;28;20337;-66
2021/12/15 12:15:36;;;;;;;;;;;22.80;49.80;;;;;;5041829;28;20510;-63
2021/12/15 12:18:05;;;;;;;;;;;22.80;50.20;;;;;;5045578;28;19956;-65
2021/12/15 12:20:39;;;;;;;;;;;22.90;50.40;;;;;;5049491;28;19908;-66
2021/12/15 12:23:06;;;;;;;;;;;22.90;51.30;;;;;;5044010;28;22150;-65
2021/12/15 12:25:41;;;;;;;;;;;23.00;51.70;;;;;;5044964;28;19913;-66
2021/12/15 12:28:08;;;;;;;;;;;23.00;51.30;;;;;;5044857;28;19951;-65
2021/12/15 12:30:36;;;;;;;;;;;23.00;51.70;;;;;;5046612;28;19908;-65
2021/12/15 12:33:04;;;;;;;;;;;23.10;51.70;;;;;;5044238;28;19916;-66
2021/12/15 12:35:31;;;;;;;;;;;23.10;51.90;;;;;;5039665;28;20025;-65
2021/12/15 12:38:04;;;;;;;;;;;23.10;52.60;;;;;;5050093;28;19920;-66
2021/12/15 12:40:31;;;;;;;;;;;23.20;52.20;;;;;;5046718;28;19909;-67
2021/12/15 12:42:57;;;;;;;;;;;23.10;52.00;;;;;;5052841;28;20021;-65
2021/12/15 12:45:30;;;;;;;;;;;23.20;52.10;;;;;;5057654;28;19990;-69
2021/12/15 13:01:13;;;;;;;;;;;23.20;49.80;;;;;;5051711;28;19924;-67
2021/12/15 13:03:42;;;;;;;;;;;23.20;50.20;;;;;;5049410;28;20412;-67
2021/12/15 13:06:09;;;;;;;;;;;23.20;50.30;;;;;;5052854;28;19913;-67
2021/12/15 13:09:00;;;;;;;;;;;23.20;50.30;;;;;;5048525;28;19999;-68
2021/12/15 13:11:33;;;;;;;;;;;23.20;50.80;;;;;;5043166;28;20462;-69
2021/12/15 13:14:13;;;;;;;;;;;23.30;51.30;;;;;;5052945;28;19923;-67
2021/12/15 13:16:38;;;;;;;;;;;23.30;51.00;;;;;;5056291;28;19927;-65
2021/12/15 13:19:12;;;;;;;;;;;23.40;51.50;;;;;;5048032;28;19920;-65
2021/12/15 13:21:49;;;;;;;;;;;23.40;52.30;;;;;;5042662;28;19913;-69
2021/12/15 13:28:41;;;;;;;;;;;23.40;52.10;;;;;;5057601;28;19909;-67
2021/12/15 13:30:03;;;;;;;;;;;23.50;52.00;;;;;;5054097;28;20013;-66
2021/12/15 13:32:31;;;;;;;;;;;23.50;51.90;;;;;;5039101;28;20382;-67
2021/12/15 13:34:57;;;;;;;;;;;23.50;52.00;;;;;;5036671;28;19975;-65
2021/12/15 13:37:43;;;;;;;;;;;23.50;52.10;;;;;;5037357;28;20682;-64
2021/12/15 13:40:11;;;;;;;;;;;23.50;52.30;;;;;;5033773;28;20390;-65
2021/12/15 13:42:53;;;;;;;;;;;23.60;52.40;;;;;;5041166;28;19920;-66
2021/12/15 13:45:29;;;;;;;;;;;23.60;52.30;;;;;;5044422;28;20268;-67
2021/12/15 13:47:55;;;;;;;;;;;23.60;52.20;;;;;;5038219;28;19917;-68
2021/12/15 13:50:21;;;;;;;;;;;23.60;52.60;;;;;;5037582;28;20380;-68
2021/12/15 13:52:53;;;;;;;;;;;23.60;52.50;;;;;;5043004;28;20036;-66
2021/12/15 13:55:22;;;;;;;;;;;23.70;53.00;;;;;;5042917;28;19919;-65
2021/12/15 13:57:48;;;;;;;;;;;23.70;52.50;;;;;;5042739;28;19967;-68
2021/12/15 14:00:18;;;;;;;;;;;23.70;52.40;;;;;;5043691;28;19951;-67
2021/12/15 14:02:59;;;;;;;;;;;23.70;52.30;;;;;;5039227;28;19921;-68
2021/12/15 14:05:27;;;;;;;;;;;23.70;52.50;;;;;;5041303;28;19916;-67
2021/12/15 14:07:58;;;;;;;;;;;23.80;52.40;;;;;;5040622;28;19917;-68
2021/12/15 14:10:24;;;;;;;;;;;23.80;52.50;;;;;;5040496;28;19928;-68
2021/12/15 14:12:55;;;;;;;;;;;23.80;52.50;;;;;;5061713;28;20291;-68
2021/12/15 14:15:24;;;;;;;;;;;23.80;52.80;;;;;;5043096;28;20317;-66
2021/12/15 14:17:59;;;;;;;;;;;23.90;53.20;;;;;;5042412;28;20008;-66
2021/12/15 14:20:25;;;;;;;;;;;23.90;52.90;;;;;;5041362;28;19924;-65
2021/12/15 14:22:55;;;;;;;;;;;23.90;53.40;;;;;;5037024;28;19919;-68
2021/12/15 14:25:20;;;;;;;;;;;24.00;53.40;;;;;;5042709;28;19912;-66
2021/12/15 14:27:46;;;;;;;;;;;24.00;53.40;;;;;;5042378;28;19916;-68
2021/12/15 14:30:12;;;;;;;;;;;24.10;53.80;;;;;;5041363;28;20396;-66
2021/12/15 14:32:37;;;;;;;;;;;24.00;53.20;;;;;;5039023;28;20372;-67
2021/12/15 14:35:03;;;;;;;;;;;24.10;53.40;;;;;;5042293;28;19913;-67
2021/12/15 14:37:29;;;;;;;;;;;24.10;53.40;;;;;;5043964;28;19912;-68
2021/12/15 14:39:55;;;;;;;;;;;24.10;53.60;;;;;;5042686;28;19912;-64
2021/12/15 14:42:22;;;;;;;;;;;24.10;53.60;;;;;;5042675;28;19917;-66
2021/12/15 14:44:49;;;;;;;;;;;24.10;53.30;;;;;;5038934;28;19917;-65
2021/12/15 14:47:20;;;;;;;;;;;24.10;53.30;;;;;;5039023;28;19940;-66
2021/12/15 14:49:53;;;;;;;;;;;24.10;53.60;;;;;;5041987;28;19952;-67
2021/12/15 14:52:21;;;;;;;;;;;24.20;53.70;;;;;;5038788;28;19996;-66
2021/12/15 14:54:48;;;;;;;;;;;24.20;53.70;;;;;;5037654;28;19916;-68
2021/12/15 14:57:22;;;;;;;;;;;24.20;53.90;;;;;;5040358;28;19913;-66
2021/12/15 15:00:06;;;;;;;;;;;24.20;54.00;;;;;;5035441;28;19927;-66
2021/12/15 15:02:33;;;;;;;;;;;24.20;53.80;;;;;;5035830;28;20003;-65
2021/12/15 15:05:11;;;;;;;;;;;24.30;53.60;;;;;;5039161;28;20021;-65
2021/12/15 15:07:38;;;;;;;;;;;24.30;53.10;;;;;;5039609;28;20675;-64
2021/12/15 15:10:09;;;;;;;;;;;24.30;53.10;;;;;;5038521;28;19915;-64
2021/12/15 15:12:36;;;;;;;;;;;24.30;53.10;;;;;;5041728;28;19912;-64
2021/12/15 15:15:02;;;;;;;;;;;24.30;53.20;;;;;;5039483;28;19920;-68
2021/12/15 15:17:32;;;;;;;;;;;24.30;53.20;;;;;;5037818;28;20050;-68
2021/12/15 15:20:17;;;;;;;;;;;24.30;53.30;;;;;;5036141;28;20059;-64
2021/12/15 15:22:44;;;;;;;;;;;24.30;53.20;;;;;;5032969;28;19917;-66
2021/12/15 15:25:11;;;;;;;;;;;24.30;53.70;;;;;;5034606;28;19915;-68
2021/12/15 15:27:38;;;;;;;;;;;24.40;54.20;;;;;;5040913;28;19920;-66
2021/12/15 15:30:05;;;;;;;;;;;24.40;54.30;;;;;;5040922;28;19912;-65
2021/12/15 15:32:32;;;;;;;;;;;24.40;54.00;;;;;;5039422;28;19917;-66
2021/12/15 15:35:09;;;;;;;;;;;24.40;53.80;;;;;;5036095;28;19915;-68
2021/12/15 15:37:35;;;;;;;;;;;24.40;53.60;;;;;;5041453;28;19908;-66
2021/12/15 15:40:07;;;;;;;;;;;24.40;53.40;;;;;;5035392;28;20188;-65
2021/12/15 15:42:32;;;;;;;;;;;24.40;53.50;;;;;;5041626;28;19928;-67
2021/12/15 15:44:58;;;;;;;;;;;24.50;53.70;;;;;;5041923;28;19924;-68
2021/12/15 15:47:23;;;;;;;;;;;24.40;53.60;;;;;;5034651;28;19913;-68